createdAt,value
2018-08-30T00:02:14.284Z,15.90
2018-08-30T00:04:41.816Z,15.90
2018-08-30T00:07:09.409Z,15.90
2018-08-30T00:09:36.987Z,15.90
2018-08-30T00:12:04.796Z,15.90
2018-08-30T00:14:32.772Z,15.90
2018-08-30T00:17:00.580Z,15.90
2018-08-30T00:19:28.127Z,15.90
2018-08-30T00:21:55.687Z,15.90
2018-08-30T00:24:23.264Z,15.90
2018-08-30T00:26:50.830Z,15.90
2018-08-30T00:29:18.359Z,15.90
2018-08-30T00:31:45.933Z,15.90
2018-08-30T00:34:13.470Z,15.90
2018-08-30T00:36:40.989Z,15.90
2018-08-30T00:39:09.271Z,15.90
2018-08-30T00:41:37.083Z,15.90
2018-08-30T00:44:04.677Z,15.90
2018-08-30T00:46:32.228Z,15.90
2018-08-30T00:48:59.756Z,15.90
2018-08-30T00:51:27.284Z,15.90
2018-08-30T00:53:54.867Z,15.90
2018-08-30T00:56:22.431Z,15.90
2018-08-30T00:58:50.013Z,15.90
2018-08-30T01:01:17.589Z,15.90
2018-08-30T01:03:45.192Z,15.90
2018-08-30T01:06:12.807Z,15.90
2018-08-30T01:08:40.380Z,15.90
2018-08-30T01:11:08.046Z,15.90
2018-08-30T01:13:35.603Z,15.80
2018-08-30T01:16:03.230Z,15.80
2018-08-30T01:18:30.787Z,15.80
2018-08-30T01:20:58.349Z,15.80
2018-08-30T01:23:25.959Z,15.80
2018-08-30T01:25:53.481Z,15.80
2018-08-30T01:28:21.067Z,15.80
2018-08-30T01:30:48.712Z,15.90
2018-08-30T01:33:16.315Z,15.80
2018-08-30T01:35:43.857Z,15.80
2018-08-30T01:38:11.433Z,15.80
2018-08-30T01:40:38.976Z,15.80
2018-08-30T01:43:06.513Z,15.70
2018-08-30T01:45:34.110Z,15.70
2018-08-30T01:48:01.624Z,15.60
2018-08-30T01:50:29.463Z,15.60
2018-08-30T01:52:57.104Z,15.50
2018-08-30T01:55:24.642Z,15.50
2018-08-30T01:57:52.173Z,15.40
2018-08-30T02:00:19.783Z,15.30
2018-08-30T02:02:47.582Z,15.30
2018-08-30T02:05:15.113Z,15.20
2018-08-30T02:07:42.671Z,15.20
2018-08-30T02:10:10.190Z,15.10
2018-08-30T02:12:37.710Z,15.10
2018-08-30T02:15:05.559Z,15.10
2018-08-30T02:17:33.077Z,15.00
2018-08-30T02:20:00.591Z,15.00
2018-08-30T02:22:28.188Z,15.00
2018-08-30T02:24:55.762Z,14.90
2018-08-30T02:27:23.304Z,14.90
2018-08-30T02:29:50.847Z,14.90
2018-08-30T02:32:18.393Z,14.80
2018-08-30T02:34:45.896Z,14.80
2018-08-30T02:37:13.474Z,14.70
2018-08-30T02:39:41.000Z,14.70
2018-08-30T02:42:08.514Z,14.60
2018-08-30T02:44:36.081Z,14.60
2018-08-30T02:47:04.020Z,14.60
2018-08-30T02:49:31.563Z,14.50
2018-08-30T02:51:59.178Z,14.50
2018-08-30T02:54:26.688Z,14.50
2018-08-30T02:56:54.218Z,14.50
2018-08-30T02:59:21.781Z,14.50
2018-08-30T03:01:49.306Z,14.40
2018-08-30T03:04:16.874Z,14.40
2018-08-30T03:06:44.436Z,14.40
2018-08-30T03:09:11.955Z,14.30
2018-08-30T03:11:39.503Z,14.30
2018-08-30T03:14:07.079Z,14.30
2018-08-30T03:16:34.600Z,14.20
2018-08-30T03:19:02.120Z,14.20
2018-08-30T03:21:29.737Z,14.20
2018-08-30T03:23:57.274Z,14.20
2018-08-30T03:26:24.799Z,14.10
2018-08-30T03:28:52.347Z,14.10
2018-08-30T03:31:19.903Z,14.10
2018-08-30T03:33:47.444Z,14.10
2018-08-30T03:36:15.022Z,14.00
2018-08-30T03:38:42.548Z,14.00
2018-08-30T03:41:10.066Z,14.00
2018-08-30T03:43:37.631Z,14.00
2018-08-30T03:46:05.204Z,13.90
2018-08-30T03:48:32.721Z,13.90
2018-08-30T03:51:00.302Z,13.90
2018-08-30T03:53:27.802Z,13.90
2018-08-30T03:55:55.322Z,13.90
2018-08-30T03:58:22.877Z,13.80
2018-08-30T04:00:50.411Z,13.80
2018-08-30T04:03:17.944Z,13.80
2018-08-30T04:05:45.480Z,13.80
2018-08-30T04:08:13.012Z,13.80
2018-08-30T04:10:40.542Z,13.80
2018-08-30T04:13:08.078Z,13.80
2018-08-30T04:15:35.589Z,13.70
2018-08-30T04:18:03.109Z,13.70
2018-08-30T04:20:30.676Z,13.60
2018-08-30T04:22:58.253Z,13.60
2018-08-30T04:25:25.835Z,13.60
2018-08-30T04:27:53.561Z,13.60
2018-08-30T04:30:21.264Z,13.60
2018-08-30T04:32:48.768Z,13.60
2018-08-30T04:35:16.325Z,13.60
2018-08-30T04:37:43.873Z,13.60
2018-08-30T04:40:11.396Z,13.60
2018-08-30T04:42:39.004Z,13.60
2018-08-30T04:45:06.828Z,13.60
2018-08-30T04:47:34.410Z,13.60
2018-08-30T04:50:02.029Z,13.60
2018-08-30T04:52:29.608Z,13.60
2018-08-30T04:54:57.127Z,13.60
2018-08-30T04:57:24.702Z,13.60
2018-08-30T04:59:52.221Z,13.60
2018-08-30T05:02:19.850Z,13.50
2018-08-30T05:04:47.400Z,13.50
2018-08-30T05:07:14.941Z,13.50
2018-08-30T05:09:42.542Z,13.50
2018-08-30T05:12:10.120Z,13.50
2018-08-30T05:14:37.678Z,13.50
2018-08-30T05:17:05.404Z,13.50
2018-08-30T05:19:32.980Z,13.50
2018-08-30T05:22:00.579Z,13.50
2018-08-30T05:24:28.190Z,13.40
2018-08-30T05:26:55.775Z,13.50
2018-08-30T05:29:23.310Z,13.50
2018-08-30T05:31:50.923Z,13.50
2018-08-30T05:34:18.491Z,13.60
2018-08-30T05:36:46.475Z,13.60
2018-08-30T05:39:14.074Z,13.60
2018-08-30T05:41:41.615Z,13.70
2018-08-30T05:44:09.283Z,13.80
2018-08-30T05:46:36.863Z,13.70
2018-08-30T05:49:04.417Z,13.90
2018-08-30T05:51:31.963Z,13.90
2018-08-30T05:53:59.534Z,14.00
2018-08-30T05:56:27.121Z,14.00
2018-08-30T05:58:54.699Z,14.10
2018-08-30T06:01:22.383Z,14.10
2018-08-30T06:03:49.954Z,14.20
2018-08-30T06:06:17.561Z,14.20
2018-08-30T06:08:45.181Z,14.30
2018-08-30T06:11:12.763Z,14.20
2018-08-30T06:13:40.357Z,14.30
2018-08-30T06:16:07.993Z,14.30
2018-08-30T06:18:35.807Z,14.30
2018-08-30T06:21:03.453Z,14.30
2018-08-30T06:23:31.071Z,14.30
2018-08-30T06:25:58.654Z,14.30
2018-08-30T06:28:26.259Z,14.30
2018-08-30T06:30:53.851Z,14.40
2018-08-30T06:33:21.424Z,14.40
2018-08-30T06:35:49.035Z,14.40
2018-08-30T06:38:16.629Z,14.50
2018-08-30T06:40:44.198Z,14.50
2018-08-30T06:43:11.771Z,14.60
2018-08-30T06:45:39.403Z,14.60
2018-08-30T06:48:06.967Z,14.60
2018-08-30T06:50:34.487Z,14.70
2018-08-30T06:53:02.087Z,14.70
2018-08-30T06:55:29.685Z,14.80
2018-08-30T06:57:57.227Z,14.80
2018-08-30T07:00:24.795Z,14.80
2018-08-30T07:02:52.317Z,14.90
2018-08-30T07:05:19.987Z,15.00
2018-08-30T07:07:47.587Z,15.10
2018-08-30T07:10:15.341Z,15.20
2018-08-30T07:12:42.937Z,15.30
2018-08-30T07:15:10.599Z,15.40
2018-08-30T07:17:38.193Z,15.50
2018-08-30T07:20:05.894Z,15.70
2018-08-30T07:22:33.552Z,15.80
2018-08-30T07:25:01.155Z,15.90
2018-08-30T07:27:28.757Z,16.10
2018-08-30T07:29:56.350Z,16.20
2018-08-30T07:32:23.956Z,16.40
2018-08-30T07:34:51.658Z,16.50
2018-08-30T07:37:19.148Z,16.70
2018-08-30T07:39:46.755Z,16.80
2018-08-30T07:42:14.420Z,16.90
2018-08-30T07:44:42.100Z,16.90
2018-08-30T07:47:09.747Z,17.10
2018-08-30T07:49:37.331Z,17.20
2018-08-30T07:52:04.948Z,17.30
2018-08-30T07:54:32.688Z,17.30
2018-08-30T07:57:00.321Z,17.20
2018-08-30T07:59:27.908Z,17.20
2018-08-30T08:01:55.539Z,17.20
2018-08-30T08:04:23.182Z,17.20
2018-08-30T08:06:50.808Z,17.50
2018-08-30T08:09:18.474Z,17.60
2018-08-30T08:11:46.073Z,17.80
2018-08-30T08:14:13.682Z,17.80
2018-08-30T08:16:41.458Z,17.90
2018-08-30T08:19:09.076Z,18.10
2018-08-30T08:21:36.688Z,18.20
2018-08-30T08:24:04.283Z,18.30
2018-08-30T08:26:32.026Z,18.40
2018-08-30T08:28:59.589Z,18.40
2018-08-30T08:31:27.206Z,18.60
2018-08-30T08:33:54.729Z,18.70
2018-08-30T08:36:22.384Z,18.80
2018-08-30T08:38:50.046Z,18.80
2018-08-30T08:41:17.637Z,18.90
2018-08-30T08:43:45.233Z,18.90
2018-08-30T08:46:12.785Z,19.00
2018-08-30T08:48:40.386Z,19.20
2018-08-30T08:51:08.121Z,19.40
2018-08-30T08:53:35.710Z,19.70
2018-08-30T08:56:03.287Z,19.80
2018-08-30T08:58:30.926Z,20.00
2018-08-30T09:00:58.491Z,20.10
2018-08-30T09:03:26.079Z,20.20
2018-08-30T09:05:53.633Z,20.10
2018-08-30T09:08:21.364Z,20.20
2018-08-30T09:10:48.937Z,20.40
2018-08-30T09:13:16.617Z,20.50
2018-08-30T09:15:44.178Z,20.50
2018-08-30T09:18:11.720Z,20.50
2018-08-30T09:20:39.356Z,20.40
2018-08-30T09:23:06.997Z,20.60
2018-08-30T09:25:34.533Z,20.70
2018-08-30T09:28:02.176Z,20.80
2018-08-30T09:30:29.753Z,20.90
2018-08-30T09:32:57.301Z,20.90
2018-08-30T09:35:24.880Z,20.80
2018-08-30T09:37:52.480Z,20.60
2018-08-30T09:40:20.062Z,20.50
2018-08-30T09:42:47.664Z,20.40
2018-08-30T09:45:15.194Z,20.20
2018-08-30T09:47:42.790Z,20.20
2018-08-30T09:50:10.382Z,20.30
2018-08-30T09:52:38.070Z,20.50
2018-08-30T09:55:05.914Z,20.70
2018-08-30T09:57:33.625Z,20.90
2018-08-30T10:00:01.203Z,21.00
2018-08-30T10:02:34.405Z,21.20
2018-08-30T10:05:02.009Z,21.20
2018-08-30T10:07:29.673Z,21.50
2018-08-30T10:09:57.283Z,21.30
2018-08-30T10:12:25.766Z,21.40
2018-08-30T10:14:53.357Z,21.70
2018-08-30T10:17:20.933Z,22.00
2018-08-30T10:19:48.513Z,22.40
2018-08-30T10:22:16.173Z,23.00
2018-08-30T10:24:43.800Z,23.30
2018-08-30T10:27:11.342Z,23.40
2018-08-30T10:29:38.887Z,23.70
2018-08-30T10:32:06.472Z,24.10
2018-08-30T10:34:34.072Z,24.40
2018-08-30T10:37:01.631Z,24.30
2018-08-30T10:39:29.198Z,24.20
2018-08-30T10:41:56.768Z,24.20
2018-08-30T10:44:24.339Z,23.50
2018-08-30T10:46:51.960Z,23.50
2018-08-30T10:49:19.538Z,23.20
2018-08-30T10:51:47.164Z,23.50
2018-08-30T10:54:14.763Z,23.90
2018-08-30T10:56:42.387Z,24.70
2018-08-30T10:59:09.987Z,24.30
2018-08-30T11:01:37.701Z,24.00
2018-08-30T11:04:05.674Z,23.90
2018-08-30T11:06:33.321Z,23.80
2018-08-30T11:09:00.971Z,23.80
2018-08-30T11:11:28.546Z,24.10
2018-08-30T11:13:56.149Z,24.20
2018-08-30T11:16:23.876Z,24.10
2018-08-30T11:18:51.544Z,24.20
2018-08-30T11:21:19.119Z,23.90
2018-08-30T11:23:46.765Z,23.90
2018-08-30T11:26:14.352Z,23.90
2018-08-30T11:28:41.909Z,24.10
2018-08-30T11:31:09.526Z,24.10
2018-08-30T11:33:37.095Z,24.00
2018-08-30T11:36:04.926Z,24.00
2018-08-30T11:38:32.620Z,24.10
2018-08-30T11:41:00.219Z,24.20
2018-08-30T11:43:27.933Z,24.60
2018-08-30T11:45:55.372Z,24.80
2018-08-30T11:48:22.935Z,24.60
2018-08-30T11:50:50.517Z,24.20
2018-08-30T11:53:18.149Z,24.40
2018-08-30T11:55:45.711Z,24.60
2018-08-30T11:58:13.285Z,24.60
2018-08-30T12:00:40.931Z,25.00
2018-08-30T12:03:08.515Z,24.70
2018-08-30T12:05:36.092Z,24.70
2018-08-30T12:08:04.654Z,25.00
2018-08-30T12:10:34.924Z,25.20
2018-08-30T12:13:02.478Z,24.90
2018-08-30T12:15:30.104Z,24.50
2018-08-30T12:17:57.663Z,24.40
2018-08-30T12:20:25.321Z,24.30
2018-08-30T12:22:52.871Z,24.30
2018-08-30T12:25:20.455Z,24.60
2018-08-30T12:27:48.030Z,25.00
2018-08-30T12:30:15.673Z,25.50
2018-08-30T12:32:43.250Z,25.50
2018-08-30T12:35:10.937Z,25.70
2018-08-30T12:37:38.512Z,25.30
2018-08-30T12:40:06.258Z,26.00
2018-08-30T12:42:33.875Z,26.90
2018-08-30T12:45:01.393Z,27.60
2018-08-30T12:47:29.011Z,27.50
2018-08-30T12:49:56.689Z,26.90
2018-08-30T12:52:24.492Z,27.20
2018-08-30T12:54:52.040Z,27.30
2018-08-30T12:57:19.730Z,27.30
2018-08-30T12:59:47.366Z,27.10
2018-08-30T13:02:14.987Z,26.80
2018-08-30T13:04:42.669Z,26.80
2018-08-30T13:07:10.288Z,26.70
2018-08-30T13:09:38.065Z,26.80
2018-08-30T13:12:06.003Z,26.70
2018-08-30T13:14:33.691Z,26.50
2018-08-30T13:17:01.089Z,26.40
2018-08-30T13:19:29.036Z,26.90
2018-08-30T13:21:56.320Z,27.70
2018-08-30T13:24:24.017Z,28.10
2018-08-30T13:26:51.581Z,28.30
2018-08-30T13:29:19.333Z,28.40
2018-08-30T13:31:46.987Z,29.20
2018-08-30T13:34:15.372Z,29.50
2018-08-30T13:36:42.808Z,29.50
2018-08-30T13:39:11.307Z,28.80
2018-08-30T13:41:39.258Z,28.90
2018-08-30T13:44:08.143Z,28.40
2018-08-30T13:46:36.018Z,27.90
2018-08-30T13:49:03.764Z,27.50
2018-08-30T13:51:31.296Z,27.30
2018-08-30T13:53:59.204Z,27.10
2018-08-30T13:56:27.018Z,26.20
2018-08-30T13:58:54.750Z,26.20
2018-08-30T14:01:22.383Z,26.60
2018-08-30T14:03:49.793Z,26.70
2018-08-30T14:06:17.502Z,26.90
2018-08-30T14:08:45.143Z,27.00
2018-08-30T14:11:12.699Z,26.90
2018-08-30T14:13:40.319Z,26.80
2018-08-30T14:16:07.716Z,26.20
2018-08-30T14:18:35.254Z,25.80
2018-08-30T14:21:02.869Z,25.60
2018-08-30T14:23:30.532Z,25.50
2018-08-30T14:25:58.152Z,25.30
2018-08-30T14:28:25.748Z,25.50
2018-08-30T14:30:53.294Z,25.60
2018-08-30T14:33:20.839Z,26.60
2018-08-30T14:35:48.602Z,26.90
2018-08-30T14:38:16.118Z,27.30
2018-08-30T14:40:43.817Z,27.50
2018-08-30T14:43:11.348Z,27.70
2018-08-30T14:45:39.353Z,28.70
2018-08-30T14:48:06.910Z,29.50
2018-08-30T14:50:34.443Z,28.70
2018-08-30T14:53:02.038Z,28.30
2018-08-30T14:55:29.661Z,27.80
2018-08-30T14:57:57.267Z,27.40
2018-08-30T15:00:25.979Z,27.30
2018-08-30T15:02:53.297Z,27.50
2018-08-30T15:05:20.972Z,28.40
2018-08-30T15:07:48.495Z,28.90
2018-08-30T15:10:16.377Z,28.90
2018-08-30T15:12:44.289Z,28.80
2018-08-30T15:15:11.975Z,29.30
2018-08-30T15:17:39.780Z,29.10
2018-08-30T15:20:07.489Z,28.30
2018-08-30T15:22:35.089Z,28.00
2018-08-30T15:25:02.749Z,27.90
2018-08-30T15:27:30.318Z,27.70
2018-08-30T15:29:57.862Z,27.60
2018-08-30T15:32:25.527Z,27.50
2018-08-30T15:34:53.134Z,27.00
2018-08-30T15:37:20.742Z,26.60
2018-08-30T15:39:48.409Z,26.00
2018-08-30T15:42:16.058Z,25.60
2018-08-30T15:44:43.541Z,25.30
2018-08-30T15:47:11.214Z,25.30
2018-08-30T15:49:38.668Z,25.20
2018-08-30T15:52:06.324Z,25.30
2018-08-30T15:54:33.967Z,25.20
2018-08-30T15:57:01.598Z,25.00
2018-08-30T15:59:29.301Z,24.80
2018-08-30T16:01:57.262Z,24.70
2018-08-30T16:04:24.751Z,24.60
2018-08-30T16:06:52.471Z,24.30
2018-08-30T16:09:19.938Z,24.10
2018-08-30T16:11:47.476Z,23.80
2018-08-30T16:14:15.017Z,23.60
2018-08-30T16:16:42.604Z,23.60
2018-08-30T16:19:10.125Z,23.40
2018-08-30T16:21:37.702Z,23.30
2018-08-30T16:24:05.482Z,23.40
2018-08-30T16:26:33.129Z,23.40
2018-08-30T16:29:00.750Z,23.40
2018-08-30T16:31:28.312Z,23.50
2018-08-30T16:33:55.877Z,23.50
2018-08-30T16:36:23.450Z,23.30
2018-08-30T16:38:51.047Z,23.10
2018-08-30T16:41:18.916Z,23.10
2018-08-30T16:43:46.450Z,22.90
2018-08-30T16:46:14.023Z,22.80
2018-08-30T16:48:41.663Z,22.90
2018-08-30T16:51:09.276Z,22.80
2018-08-30T16:53:36.908Z,22.60
2018-08-30T16:56:04.725Z,22.50
2018-08-30T16:58:32.328Z,22.40
2018-08-30T17:00:59.921Z,22.30
2018-08-30T17:03:27.582Z,22.20
2018-08-30T17:05:55.211Z,22.20
2018-08-30T17:08:22.796Z,22.00
2018-08-30T17:10:50.468Z,21.80
2018-08-30T17:13:18.065Z,21.80
2018-08-30T17:15:45.657Z,21.80
2018-08-30T17:18:13.277Z,21.80
2018-08-30T17:20:45.576Z,21.70
2018-08-30T17:23:13.201Z,21.70
2018-08-30T17:25:41.917Z,21.60
2018-08-30T17:28:09.547Z,21.40
2018-08-30T17:30:37.275Z,21.30
2018-08-30T17:33:05.145Z,21.30
2018-08-30T17:35:32.694Z,21.20
2018-08-30T17:38:00.279Z,21.10
2018-08-30T17:40:28.005Z,21.00
2018-08-30T17:42:55.597Z,21.00
2018-08-30T17:45:23.496Z,21.00
2018-08-30T17:47:50.991Z,20.90
2018-08-30T17:50:19.124Z,20.80
2018-08-30T17:52:46.840Z,20.90
2018-08-30T17:57:48.902Z,20.70
2018-08-30T18:00:16.658Z,20.70
2018-08-30T18:02:45.276Z,20.60
2018-08-30T18:05:13.470Z,20.50
2018-08-30T18:07:41.008Z,20.40
2018-08-30T18:10:09.060Z,20.30
2018-08-30T18:12:37.153Z,20.30
2018-08-30T18:15:05.836Z,20.10
2018-08-30T18:17:33.393Z,20.00
2018-08-30T18:20:01.060Z,20.10
2018-08-30T18:22:28.617Z,20.00
2018-08-30T18:24:56.295Z,20.00
2018-08-30T18:27:24.003Z,19.90
2018-08-30T18:29:51.553Z,19.80
2018-08-30T18:32:19.196Z,19.70
2018-08-30T18:34:46.824Z,19.60
2018-08-30T18:37:14.415Z,19.50
2018-08-30T18:39:42.050Z,19.30
2018-08-30T18:42:09.627Z,19.20
2018-08-30T18:44:37.156Z,19.10
2018-08-30T18:47:04.742Z,19.10
2018-08-30T18:49:32.413Z,19.00
2018-08-30T18:51:59.984Z,19.00
2018-08-30T18:54:27.524Z,18.90
2018-08-30T18:56:55.136Z,18.80
2018-08-30T18:59:22.662Z,18.80
2018-08-30T19:01:50.246Z,18.70
2018-08-30T19:04:17.768Z,18.60
2018-08-30T19:06:45.310Z,18.60
2018-08-30T19:09:12.852Z,18.50
2018-08-30T19:11:41.036Z,18.40
2018-08-30T19:14:08.646Z,18.30
2018-08-30T19:16:42.294Z,18.30
2018-08-30T19:19:14.148Z,18.30
2018-08-30T19:21:41.910Z,18.30
2018-08-30T19:24:15.004Z,18.30
2018-08-30T19:26:42.562Z,18.30
2018-08-30T19:29:10.096Z,18.30
2018-08-30T19:31:37.672Z,18.30
2018-08-30T19:34:05.442Z,18.30
2018-08-30T19:36:32.994Z,18.30
2018-08-30T19:39:01.482Z,18.30
2018-08-30T19:41:29.179Z,18.40
2018-08-30T19:43:56.789Z,18.40
2018-08-30T19:46:24.445Z,18.40
2018-08-30T19:48:52.105Z,18.30
2018-08-30T19:51:19.737Z,18.40
2018-08-30T19:53:47.327Z,18.30
2018-08-30T19:56:15.309Z,18.30
2018-08-30T19:58:43.387Z,18.30
2018-08-30T20:01:11.000Z,18.30
2018-08-30T20:03:38.705Z,18.30
2018-08-30T20:06:06.675Z,18.40
2018-08-30T20:08:34.313Z,18.40
2018-08-30T20:11:02.163Z,18.30
2018-08-30T20:13:29.831Z,18.30
2018-08-30T20:15:57.705Z,18.30
2018-08-30T20:18:25.734Z,18.20
2018-08-30T20:20:53.303Z,18.20
2018-08-30T20:23:21.087Z,18.10
2018-08-30T20:25:48.796Z,18.20
2018-08-30T20:28:16.684Z,18.10
2018-08-30T20:30:44.529Z,18.10
2018-08-30T20:33:12.195Z,18.00
2018-08-30T20:35:39.862Z,18.10
2018-08-30T20:38:07.550Z,18.00
2018-08-30T20:40:35.241Z,18.00
2018-08-30T20:43:02.894Z,18.00
2018-08-30T20:45:30.627Z,17.90
2018-08-30T20:47:58.378Z,17.90
2018-08-30T20:50:26.044Z,17.90
2018-08-30T20:52:53.643Z,17.80
2018-08-30T20:55:21.252Z,17.80
2018-08-30T20:57:48.880Z,17.70
2018-08-30T21:00:16.554Z,17.70
2018-08-30T21:02:44.230Z,17.70
2018-08-30T21:05:11.832Z,17.70
2018-08-30T21:07:39.470Z,17.70
2018-08-30T21:10:07.163Z,17.70
2018-08-30T21:12:34.763Z,17.60
2018-08-30T21:15:02.342Z,17.70
2018-08-30T21:17:29.956Z,17.60
2018-08-30T21:19:57.506Z,17.60
2018-08-30T21:22:25.381Z,17.60
2018-08-30T21:24:53.177Z,17.60
2018-08-30T21:27:20.713Z,17.60
2018-08-30T21:29:48.308Z,17.50
2018-08-30T21:32:15.877Z,17.40
2018-08-30T21:34:43.419Z,17.40
2018-08-30T21:37:11.137Z,17.50
2018-08-30T21:39:38.755Z,17.40
2018-08-30T21:42:06.311Z,17.30
2018-08-30T21:44:33.835Z,17.30
2018-08-30T21:47:01.419Z,17.20
2018-08-30T21:49:29.068Z,17.20
2018-08-30T21:51:56.683Z,17.10
2018-08-30T21:54:24.267Z,17.10
2018-08-30T21:56:51.896Z,17.00
2018-08-30T21:59:19.471Z,17.00
2018-08-30T22:01:47.053Z,17.00
2018-08-30T22:04:14.644Z,17.00
2018-08-30T22:06:42.195Z,16.90
2018-08-30T22:09:10.966Z,16.80
2018-08-30T22:11:38.541Z,16.80
2018-08-30T22:14:06.129Z,16.80
2018-08-30T22:16:33.711Z,16.70
2018-08-30T22:19:01.301Z,16.70
2018-08-30T22:21:28.851Z,16.60
2018-08-30T22:23:56.471Z,16.60
2018-08-30T22:26:24.112Z,16.60
2018-08-30T22:28:51.645Z,16.60
2018-08-30T22:31:19.205Z,16.50
2018-08-30T22:33:46.779Z,16.50
2018-08-30T22:36:14.389Z,16.40
2018-08-30T22:38:41.949Z,16.30
2018-08-30T22:41:09.496Z,16.30
2018-08-30T22:43:37.073Z,16.20
2018-08-30T22:46:04.649Z,16.20
2018-08-30T22:48:32.211Z,16.20
2018-08-30T22:50:59.733Z,16.10
2018-08-30T22:53:27.364Z,16.20
2018-08-30T22:55:54.885Z,16.10
2018-08-30T22:58:22.493Z,16.10
2018-08-30T23:00:50.057Z,16.10
2018-08-30T23:03:17.655Z,16.10
2018-08-30T23:05:45.199Z,16.00
2018-08-30T23:08:12.811Z,16.10
2018-08-30T23:10:40.357Z,16.10
2018-08-30T23:13:08.120Z,16.10
2018-08-30T23:15:35.760Z,16.10
2018-08-30T23:18:03.473Z,16.10
2018-08-30T23:20:31.030Z,16.10
2018-08-30T23:22:58.607Z,16.10
2018-08-30T23:25:26.174Z,16.00
2018-08-30T23:27:53.757Z,15.90
2018-08-30T23:30:21.386Z,15.90
2018-08-30T23:32:48.993Z,15.90
2018-08-30T23:35:16.575Z,15.90
2018-08-30T23:37:44.175Z,16.00
2018-08-30T23:40:11.807Z,16.00
2018-08-30T23:42:39.413Z,15.90
2018-08-30T23:45:07.149Z,15.80
2018-08-30T23:47:34.805Z,15.80
2018-08-30T23:50:02.411Z,15.70
2018-08-30T23:52:30.027Z,15.70
2018-08-30T23:54:57.659Z,15.70
2018-08-30T23:57:25.233Z,15.70
